Time;durP1;ratioP1;P1;durP2;ratioP2;P2;SDS_P1;SDS_P2;PMS_P1;PMS_P2;Temp;Humidity;BMP_temperature;BMP_pressure;BME280_temperature;BME280_humidity;BME280_pressure;Samples;Min_cycle;Max_cycle;Signal;HPM_P1;HPM_P2
2023/11/22 00:00:20;;;;;;;38.50;19.40;;;;;;;5.30;76.16;100875.14;107608;1253;111294;-62
2023/11/22 00:03:09;;;;;;;28.20;18.40;;;;;;;5.27;76.09;100873.73;107615;1251;111067;-62
2023/11/22 00:05:37;;;;;;;32.30;19.80;;;;;;;5.24;76.12;100879.66;107625;1251;108852;-61
2023/11/22 00:08:06;;;;;;;33.70;18.50;;;;;;;5.21;76.40;100878.05;107588;1251;97710;-63
2023/11/22 00:10:34;;;;;;;32.50;19.80;;;;;;;5.21;76.45;100880.55;107662;1251;98398;-61
2023/11/22 00:13:03;;;;;;;34.50;18.90;;;;;;;5.20;76.31;100880.65;107474;1254;111678;-62
2023/11/22 00:15:31;;;;;;;29.30;18.50;;;;;;;5.17;76.31;100878.65;107654;1251;108725;-62
2023/11/22 00:18:03;;;;;;;34.80;20.40;;;;;;;5.16;76.44;100882.45;107579;1251;108122;-62
2023/11/22 00:20:33;;;;;;;34.00;19.70;;;;;;;5.15;76.56;100881.23;107560;1251;97919;-61
2023/11/22 00:23:03;;;;;;;30.00;19.20;;;;;;;5.15;76.69;100883.56;107587;1251;97905;-61
2023/11/22 00:25:32;;;;;;;36.00;19.40;;;;;;;5.14;76.71;100873.36;107501;1254;111503;-62
2023/11/22 00:28:00;;;;;;;29.90;18.80;;;;;;;5.13;76.80;100876.58;107617;1254;108941;-62
2023/11/22 00:30:29;;;;;;;28.10;17.30;;;;;;;5.14;76.88;100874.75;107570;1254;108185;-62
2023/11/22 00:32:57;;;;;;;31.60;17.80;;;;;;;5.13;76.81;100871.81;107523;1254;97837;-62
2023/11/22 00:35:25;;;;;;;29.40;18.50;;;;;;;5.13;76.79;100869.14;107609;1254;97711;-62
2023/11/22 00:37:54;;;;;;;30.40;19.30;;;;;;;5.12;76.77;100866.17;107582;1254;111246;-62
2023/11/22 00:40:22;;;;;;;32.60;18.90;;;;;;;5.12;76.96;100869.71;107539;1253;108938;-62
2023/11/22 00:42:51;;;;;;;37.40;20.20;;;;;;;5.14;77.22;100873.54;107558;1257;107803;-61
2023/11/22 00:45:19;;;;;;;30.70;18.50;;;;;;;5.14;77.28;100875.66;107593;1250;97823;-61
2023/11/22 00:47:48;;;;;;;32.30;17.90;;;;;;;5.14;77.26;100873.66;107479;1253;97824;-61
2023/11/22 00:50:19;;;;;;;30.80;18.50;;;;;;;5.14;77.02;100874.41;107343;1254;111352;-61
2023/11/22 00:52:48;;;;;;;31.30;18.20;;;;;;;5.13;77.03;100875.71;107586;1254;108754;-61
2023/11/22 00:55:16;;;;;;;37.20;19.00;;;;;;;5.13;77.31;100874.83;107547;1253;108131;-62
2023/11/22 00:57:45;;;;;;;33.00;19.00;;;;;;;5.14;77.30;100875.30;107549;1255;97930;-62
2023/11/22 01:00:15;;;;;;;30.50;17.70;;;;;;;5.14;77.25;100877.80;107541;1252;97866;-62
2023/11/22 01:02:44;;;;;;;29.00;18.30;;;;;;;5.13;77.34;100881.08;107608;1253;111361;-62
2023/11/22 01:05:12;;;;;;;34.70;17.30;;;;;;;5.12;77.00;100882.35;107530;1253;108812;-62
2023/11/22 01:07:42;;;;;;;32.70;19.20;;;;;;;5.11;77.24;100882.92;107513;1253;107830;-62
2023/11/22 01:10:10;;;;;;;32.50;18.30;;;;;;;5.09;77.42;100882.36;107527;1253;97837;-62
2023/11/22 01:12:39;;;;;;;30.10;17.90;;;;;;;5.06;77.55;100880.05;107505;1253;98363;-62
2023/11/22 01:15:08;;;;;;;30.70;17.50;;;;;;;5.04;76.95;100876.29;107569;1253;111087;-61
2023/11/22 01:17:37;;;;;;;29.10;18.10;;;;;;;5.01;77.19;100880.01;107592;1253;108662;-62
2023/11/22 01:20:09;;;;;;;34.20;18.00;;;;;;;4.99;77.04;100879.61;107513;1253;108875;-61
2023/11/22 01:22:38;;;;;;;24.20;16.40;;;;;;;4.97;77.14;100879.58;107539;1252;97833;-62
2023/11/22 01:25:06;;;;;;;39.00;19.50;;;;;;;4.97;77.25;100884.21;107480;1253;99606;-62
2023/11/22 01:27:35;;;;;;;32.60;19.30;;;;;;;4.97;77.44;100880.64;107583;1253;110623;-62
2023/11/22 01:30:07;;;;;;;28.60;17.20;;;;;;;4.96;77.41;100882.98;107512;1253;109419;-62
2023/11/22 01:32:36;;;;;;;30.00;18.10;;;;;;;4.97;77.41;100879.41;107503;1253;106558;-62
2023/11/22 01:35:05;;;;;;;30.90;18.10;;;;;;;4.95;77.24;100878.65;107514;1253;97860;-62
2023/11/22 01:37:34;;;;;;;30.50;17.50;;;;;;;4.91;76.86;100879.41;107524;1253;97909;-62
2023/11/22 01:40:04;;;;;;;24.80;16.30;;;;;;;4.88;77.10;100876.95;107580;1253;110360;-62
2023/11/22 01:42:32;;;;;;;29.60;18.10;;;;;;;4.86;77.23;100876.35;107616;1252;108097;-60
2023/11/22 01:45:01;;;;;;;28.30;18.80;;;;;;;4.85;77.33;100877.45;107553;1253;106879;-61
2023/11/22 01:47:29;;;;;;;27.90;17.40;;;;;;;4.84;77.31;100877.73;107519;1253;97877;-61
2023/11/22 01:49:58;;;;;;;27.10;15.40;;;;;;;4.83;77.34;100879.55;107525;1255;97952;-61
2023/11/22 01:52:27;;;;;;;35.40;17.30;;;;;;;4.81;77.21;100880.02;107556;1253;110683;-62
2023/11/22 01:54:57;;;;;;;25.10;16.30;;;;;;;4.80;77.41;100873.16;107588;1253;108542;-62
2023/11/22 01:57:26;;;;;;;27.10;16.90;;;;;;;4.78;77.36;100873.83;107498;1252;107806;-62
2023/11/22 01:59:54;;;;;;;29.10;17.80;;;;;;;4.76;77.58;100874.11;107518;1253;98281;-62
2023/11/22 02:02:23;;;;;;;25.70;15.50;;;;;;;4.77;77.56;100872.63;107449;1253;97834;-62
2023/11/22 02:04:51;;;;;;;31.30;16.40;;;;;;;4.76;77.47;100870.02;107512;1253;111986;-62
2023/11/22 02:07:19;;;;;;;28.90;17.00;;;;;;;4.76;77.70;100871.47;107507;1256;109888;-62
2023/11/22 02:09:49;;;;;;;28.20;16.10;;;;;;;4.73;77.35;100867.73;107491;1253;107505;-62
2023/11/22 02:12:17;;;;;;;28.60;17.60;;;;;;;4.70;77.27;100867.02;107522;1251;97945;-62
2023/11/22 02:14:46;;;;;;;33.70;17.30;;;;;;;4.68;77.22;100863.23;107648;1256;98370;-62
2023/11/22 02:17:14;;;;;;;37.20;17.10;;;;;;;4.66;77.34;100859.78;107708;1251;110538;-61
2023/11/22 02:19:43;;;;;;;28.90;17.50;;;;;;;4.65;77.28;100864.86;107618;1251;109114;-61
2023/11/22 02:22:13;;;;;;;45.40;19.00;;;;;;;4.64;77.36;100869.69;107603;1253;107405;-61
2023/11/22 02:24:41;;;;;;;26.80;16.10;;;;;;;4.65;77.46;100868.42;107516;1251;97903;-61
2023/11/22 02:27:11;;;;;;;25.90;14.80;;;;;;;4.64;77.42;100860.67;107526;1253;97733;-61
2023/11/22 02:29:40;;;;;;;29.20;16.30;;;;;;;4.60;77.23;100861.79;107612;1251;111688;-62
2023/11/22 02:32:08;;;;;;;27.30;16.50;;;;;;;4.57;77.36;100869.43;107586;1253;110447;-62
2023/11/22 02:34:36;;;;;;;28.20;16.30;;;;;;;4.53;77.09;100880.30;107547;1255;108059;-61
2023/11/22 02:37:08;;;;;;;24.80;16.50;;;;;;;4.47;77.10;100877.69;107551;1251;98330;-63
2023/11/22 02:39:58;;;;;;;30.50;15.70;;;;;;;4.41;77.21;100883.20;107619;1254;98402;-63
2023/11/22 02:42:26;;;;;;;25.10;14.70;;;;;;;4.32;76.76;100892.09;107536;1253;112181;-62
2023/11/22 02:44:55;;;;;;;29.20;15.20;;;;;;;4.28;76.98;100890.35;107543;1253;109019;-63
2023/11/22 02:47:24;;;;;;;38.50;17.90;;;;;;;4.26;76.97;100884.81;107668;1254;107229;-63
2023/11/22 02:49:54;;;;;;;35.20;16.50;;;;;;;4.25;76.92;100887.19;107632;1252;97842;-61
2023/11/22 02:52:24;;;;;;;23.00;15.10;;;;;;;4.22;76.91;100892.34;107613;1254;97759;-62
2023/11/22 02:54:52;;;;;;;26.90;16.10;;;;;;;4.17;76.93;100900.12;107512;1251;110717;-62
2023/11/22 02:57:20;;;;;;;37.00;17.10;;;;;;;4.16;77.18;100903.34;107458;1253;110545;-62
2023/11/22 02:59:48;;;;;;;30.20;17.30;;;;;;;4.16;77.36;100899.39;107608;1255;107881;-62
2023/11/22 03:02:17;;;;;;;28.10;17.80;;;;;;;4.18;77.42;100896.80;107588;1254;97830;-62
2023/11/22 03:04:45;;;;;;;23.10;16.50;;;;;;;4.18;77.43;100896.99;107468;1254;97739;-61
2023/11/22 03:07:13;;;;;;;30.90;17.30;;;;;;;4.15;77.43;100904.27;107501;1252;111954;-63
2023/11/22 03:09:43;;;;;;;27.10;16.40;;;;;;;4.14;77.53;100904.88;107581;1253;109545;-60
2023/11/22 03:12:12;;;;;;;31.20;16.40;;;;;;;4.11;77.35;100913.56;107606;1255;107385;-61
2023/11/22 03:14:41;;;;;;;29.10;17.00;;;;;;;4.09;77.34;100921.68;107606;1253;97844;-62
2023/11/22 03:17:11;;;;;;;32.30;17.00;;;;;;;4.05;77.32;100922.79;107556;1252;98437;-60
2023/11/22 03:19:39;;;;;;;31.90;18.90;;;;;;;4.04;77.63;100916.96;107552;1254;111473;-60
2023/11/22 03:22:08;;;;;;;28.60;17.20;;;;;;;4.02;77.46;100918.15;107568;1256;110182;-61
2023/11/22 03:24:38;;;;;;;31.80;19.40;;;;;;;3.97;77.34;100921.27;107566;1253;108801;-62
2023/11/22 03:27:06;;;;;;;27.80;16.90;;;;;;;3.92;77.46;100923.55;107490;1254;97997;-61
2023/11/22 03:29:34;;;;;;;37.00;18.10;;;;;;;3.87;77.46;100925.75;107474;1253;98444;-62
2023/11/22 03:32:03;;;;;;;39.90;21.50;;;;;;;3.86;77.81;100922.98;107561;1256;111966;-62
2023/11/22 03:34:32;;;;;;;45.40;26.30;;;;;;;3.87;78.01;100921.17;107663;1254;110174;-63
2023/11/22 03:37:00;;;;;;;58.30;28.90;;;;;;;3.83;78.94;100921.23;107560;1256;107381;-64
2023/11/22 03:39:29;;;;;;;43.00;26.70;;;;;;;3.71;80.49;100927.20;107621;1253;97824;-62
2023/11/22 03:41:58;;;;;;;52.40;28.20;;;;;;;3.62;81.87;100930.19;107642;1252;97943;-62
2023/11/22 03:44:26;;;;;;;50.80;29.60;;;;;;;3.55;82.72;100939.84;107517;1253;112282;-63
2023/11/22 03:46:55;;;;;;;53.50;28.70;;;;;;;3.51;83.93;100946.08;107568;1254;110969;-61
2023/11/22 03:49:24;;;;;;;50.90;29.30;;;;;;;3.50;83.95;100950.02;107497;1254;108719;-61
2023/11/22 03:51:52;;;;;;;49.90;28.90;;;;;;;3.55;83.42;100949.77;107556;1255;97847;-62
2023/11/22 03:54:20;;;;;;;45.60;27.90;;;;;;;3.58;83.34;100949.05;107554;1255;97924;-61
2023/11/22 03:56:49;;;;;;;50.90;28.90;;;;;;;3.60;82.95;100950.88;107601;1255;110967;-61
2023/11/22 03:59:17;;;;;;;48.30;28.40;;;;;;;3.68;82.88;100952.75;107572;1253;108942;-60
2023/11/22 04:01:45;;;;;;;48.20;29.90;;;;;;;3.77;83.22;100956.84;107558;1254;108373;-60
2023/11/22 04:04:14;;;;;;;46.90;28.40;;;;;;;3.87;83.18;100959.65;107542;1255;97839;-61
2023/11/22 04:06:42;;;;;;;47.20;28.30;;;;;;;3.96;83.11;100963.59;107553;1257;97842;-62
2023/11/22 04:09:13;;;;;;;46.30;28.30;;;;;;;4.05;83.04;100967.52;107579;1251;111016;-61
2023/11/22 04:11:41;;;;;;;56.10;27.20;;;;;;;4.15;82.83;100968.17;107575;1251;110295;-63
2023/11/22 04:14:10;;;;;;;47.30;26.70;;;;;;;4.24;82.98;100972.83;107551;1250;107690;-61
2023/11/22 04:16:39;;;;;;;51.90;28.30;;;;;;;4.27;82.55;100981.50;107582;1254;97716;-61
2023/11/22 04:19:07;;;;;;;48.50;28.40;;;;;;;4.30;82.45;100982.73;107545;1255;97733;-61
2023/11/22 04:21:36;;;;;;;50.60;26.60;;;;;;;4.35;82.45;100989.35;107597;1256;112169;-62
2023/11/22 04:24:06;;;;;;;47.90;27.00;;;;;;;4.33;81.98;100992.52;107630;1257;110134;-62
2023/11/22 04:26:34;;;;;;;44.50;26.50;;;;;;;4.22;81.32;101001.31;107562;1250;108676;-63
2023/11/22 04:29:02;;;;;;;49.40;28.80;;;;;;;4.14;81.23;101001.63;107583;1254;97808;-61
2023/11/22 04:31:31;;;;;;;46.30;25.90;;;;;;;4.11;81.60;101002.66;107550;1257;97720;-62
2023/11/22 04:34:00;;;;;;;50.10;27.10;;;;;;;4.10;82.06;101011.44;107587;1253;111080;-62
2023/11/22 04:36:29;;;;;;;43.20;25.50;;;;;;;4.04;82.28;101015.48;107668;1251;109968;-62
2023/11/22 04:38:57;;;;;;;45.80;28.30;;;;;;;3.99;82.51;101019.66;107396;1254;107837;-62
2023/11/22 04:41:26;;;;;;;48.30;27.30;;;;;;;4.01;82.28;101022.08;107583;1254;97844;-62
2023/11/22 04:43:54;;;;;;;43.20;26.20;;;;;;;4.05;82.32;101029.43;107541;1251;97822;-62
2023/11/22 04:46:23;;;;;;;56.60;26.80;;;;;;;4.04;82.42;101033.02;107617;1251;110467;-61
2023/11/22 04:48:51;;;;;;;55.20;28.80;;;;;;;4.00;82.63;101033.30;107522;1254;109499;-62
2023/11/22 04:51:20;;;;;;;44.00;26.90;;;;;;;3.95;83.03;101036.23;107585;1255;108222;-62
2023/11/22 04:53:48;;;;;;;55.20;27.70;;;;;;;3.94;83.18;101037.19;107523;1251;97911;-61
2023/11/22 04:56:17;;;;;;;47.80;26.90;;;;;;;3.89;83.45;101044.34;107523;1257;98370;-62
2023/11/22 04:58:45;;;;;;;46.80;27.90;;;;;;;3.83;83.78;101053.23;107504;1254;111944;-62
2023/11/22 05:01:14;;;;;;;46.30;27.30;;;;;;;3.81;83.73;101057.39;107558;1251;109065;-61
2023/11/22 05:03:47;;;;;;;51.70;28.00;;;;;;;3.86;84.19;101064.59;107588;1256;107621;-61
2023/11/22 05:06:16;;;;;;;51.40;29.60;;;;;;;3.91;84.20;101068.39;107594;1251;97927;-62
2023/11/22 05:08:44;;;;;;;45.30;27.10;;;;;;;3.98;84.22;101074.91;107548;1256;97840;-63
2023/11/22 05:11:15;;;;;;;53.00;27.70;;;;;;;4.02;84.52;101080.23;107517;1250;112065;-62
2023/11/22 05:13:44;;;;;;;51.20;27.00;;;;;;;3.95;84.70;101086.11;107570;1254;109757;-61
2023/11/22 05:16:12;;;;;;;55.50;30.10;;;;;;;3.91;84.76;101086.14;107567;1256;108348;-62
2023/11/22 05:18:41;;;;;;;50.70;27.70;;;;;;;3.91;84.98;101087.17;107577;1251;97832;-62
2023/11/22 05:21:09;;;;;;;46.60;28.90;;;;;;;3.89;85.52;101090.14;107602;1254;97929;-61
2023/11/22 05:23:37;;;;;;;46.40;27.30;;;;;;;3.85;85.41;101092.52;107596;1251;112186;-61
2023/11/22 05:26:06;;;;;;;57.90;28.30;;;;;;;3.80;85.72;101100.05;107582;1255;110125;-60
2023/11/22 05:28:35;;;;;;;50.80;25.80;;;;;;;3.76;86.25;101106.31;107602;1251;107931;-58
2023/11/22 05:31:03;;;;;;;59.00;30.40;;;;;;;3.73;86.51;101110.73;107552;1251;97740;-61
2023/11/22 05:33:32;;;;;;;51.20;26.90;;;;;;;3.72;86.63;101112.34;107619;1254;97750;-62
2023/11/22 05:36:00;;;;;;;53.30;29.00;;;;;;;3.75;86.48;101113.29;107570;1254;111482;-63
2023/11/22 05:38:28;;;;;;;52.20;29.20;;;;;;;3.81;86.29;101119.36;107612;1254;108831;-61
2023/11/22 05:40:57;;;;;;;56.20;32.50;;;;;;;3.90;87.00;101120.96;107612;1256;108332;-62
2023/11/22 05:43:26;;;;;;;49.90;28.50;;;;;;;4.00;87.52;101127.36;107564;1256;97871;-61
2023/11/22 05:45:55;;;;;;;46.30;27.10;;;;;;;4.07;86.94;101132.47;107505;1251;97931;-62
2023/11/22 05:48:24;;;;;;;52.60;27.80;;;;;;;4.13;87.04;101135.86;107522;1254;110981;-62
2023/11/22 05:50:52;;;;;;;48.00;27.30;;;;;;;4.20;86.99;101133.86;107469;1253;110661;-61
2023/11/22 05:53:21;;;;;;;45.40;26.40;;;;;;;4.29;86.90;101136.56;107458;1254;108666;-61
2023/11/22 05:55:49;;;;;;;43.90;28.40;;;;;;;4.40;86.93;101139.48;107427;1251;97877;-61
2023/11/22 05:58:18;;;;;;;50.50;28.60;;;;;;;4.51;86.93;101142.08;107524;1255;98373;-60
2023/11/22 06:00:47;;;;;;;50.20;29.90;;;;;;;4.55;86.39;101142.74;107450;1251;111855;-61
2023/11/22 06:03:15;;;;;;;53.20;30.00;;;;;;;4.60;86.23;101147.98;107444;1251;108647;-60
2023/11/22 06:05:44;;;;;;;48.60;28.50;;;;;;;4.61;85.83;101151.66;107412;1251;109883;-60
2023/11/22 06:08:12;;;;;;;53.70;26.60;;;;;;;4.62;85.67;101163.86;107480;1251;97820;-61
2023/11/22 06:10:41;;;;;;;47.10;25.20;;;;;;;4.63;85.74;101164.83;107467;1254;97737;-61
2023/11/22 06:13:12;;;;;;;49.10;26.00;;;;;;;4.61;85.67;101164.28;107618;1251;111308;-61
2023/11/22 06:15:40;;;;;;;51.10;26.50;;;;;;;4.56;85.88;101162.94;107405;1251;109917;-62
2023/11/22 06:18:09;;;;;;;52.20;25.40;;;;;;;4.50;86.19;101165.59;107480;1254;106841;-62
2023/11/22 06:20:37;;;;;;;46.10;27.00;;;;;;;4.52;86.40;101166.54;107493;1251;97884;-62
2023/11/22 06:23:06;;;;;;;46.70;28.00;;;;;;;4.53;86.21;101172.70;107466;1256;97262;-62
2023/11/22 06:25:39;;;;;;;51.60;25.30;;;;;;;4.57;86.22;101180.99;107542;1251;111392;-62
2023/11/22 06:28:08;;;;;;;46.10;27.60;;;;;;;4.62;85.98;101185.14;107508;1251;108963;-62
2023/11/22 06:30:37;;;;;;;45.70;24.50;;;;;;;4.70;86.31;101184.86;107411;1251;108516;-60
2023/11/22 06:33:05;;;;;;;63.80;26.70;;;;;;;4.78;85.99;101182.12;107457;1254;97927;-61
2023/11/22 06:35:33;;;;;;;47.80;28.00;;;;;;;4.85;85.76;101190.75;107521;1253;97820;-61
2023/11/22 06:38:02;;;;;;;52.30;26.00;;;;;;;4.91;85.61;101192.23;107534;1251;111641;-62
2023/11/22 06:40:30;;;;;;;47.50;26.60;;;;;;;4.98;85.54;101190.91;107495;1251;109812;-61
2023/11/22 06:42:59;;;;;;;39.60;25.30;;;;;;;5.06;85.39;101199.34;107525;1254;109223;-61
2023/11/22 06:45:28;;;;;;;44.80;25.50;;;;;;;5.10;85.30;101200.69;107479;1255;97944;-60
2023/11/22 06:47:56;;;;;;;50.30;27.50;;;;;;;5.14;84.95;101204.23;107503;1256;97929;-61
2023/11/22 06:50:25;;;;;;;46.90;27.60;;;;;;;5.20;85.08;101198.18;107464;1254;110282;-62
2023/11/22 06:52:54;;;;;;;44.30;26.10;;;;;;;5.26;84.92;101198.89;107458;1251;109761;-62
2023/11/22 06:55:22;;;;;;;43.40;25.90;;;;;;;5.32;85.02;101205.48;107458;1255;107918;-62
2023/11/22 06:57:51;;;;;;;54.00;25.90;;;;;;;5.30;84.30;101211.61;107494;1254;97854;-61
2023/11/22 07:00:20;;;;;;;48.00;26.00;;;;;;;5.30;84.23;101215.73;107501;1254;97707;-59
2023/11/22 07:02:48;;;;;;;46.30;25.30;;;;;;;5.24;83.88;101218.38;107418;1251;112368;-61
2023/11/22 07:05:18;;;;;;;58.50;29.80;;;;;;;5.23;83.87;101215.80;107456;1251;109970;-62
2023/11/22 07:07:49;;;;;;;56.90;28.70;;;;;;;5.23;84.24;101217.05;107442;1254;108576;-61
2023/11/22 07:10:20;;;;;;;45.90;26.20;;;;;;;5.21;84.10;101221.75;107365;1254;98027;-62
2023/11/22 07:12:49;;;;;;;55.30;27.80;;;;;;;5.20;84.19;101222.52;107524;1251;97695;-60
2023/11/22 07:15:17;;;;;;;52.00;27.20;;;;;;;5.25;84.40;101222.27;107532;1251;111306;-61
2023/11/22 07:17:45;;;;;;;45.20;26.40;;;;;;;5.28;84.19;101227.95;107583;1254;110379;-62
2023/11/22 07:20:17;;;;;;;43.20;26.10;;;;;;;5.29;84.18;101225.95;107588;1255;107622;-62
2023/11/22 07:22:46;;;;;;;44.80;26.00;;;;;;;5.28;83.72;101231.13;107564;1251;97905;-62
2023/11/22 07:25:20;;;;;;;51.10;26.30;;;;;;;5.34;84.24;101231.52;107557;1254;97711;-62
2023/11/22 07:27:49;;;;;;;50.50;27.20;;;;;;;5.40;84.44;101233.45;107579;1254;111364;-62
2023/11/22 07:30:22;;;;;;;49.70;25.90;;;;;;;5.47;84.46;101235.84;107564;1251;110698;-62
2023/11/22 07:32:51;;;;;;;45.40;26.30;;;;;;;5.52;84.44;101240.94;107570;1256;107611;-62
2023/11/22 07:35:20;;;;;;;48.50;25.60;;;;;;;5.52;83.98;101245.04;107573;1251;97746;-61
2023/11/22 07:37:51;;;;;;;48.20;25.70;;;;;;;5.49;84.04;101255.17;107552;1251;97845;-60
2023/11/22 07:40:22;;;;;;;43.60;25.90;;;;;;;5.42;84.11;101257.01;107585;1254;111785;-61
2023/11/22 07:42:50;;;;;;;49.20;25.70;;;;;;;5.37;84.15;101257.84;107585;1253;110008;-60
2023/11/22 07:45:18;;;;;;;45.90;26.40;;;;;;;5.36;84.38;101259.12;107587;1254;107557;-61
2023/11/22 07:47:47;;;;;;;55.50;28.10;;;;;;;5.34;84.73;101264.95;107530;1254;97822;-62
2023/11/22 07:50:16;;;;;;;48.00;26.30;;;;;;;5.33;84.66;101272.25;107436;1251;98467;-62
2023/11/22 07:52:45;;;;;;;44.20;27.30;;;;;;;5.36;84.64;101274.27;107642;1251;111492;-61
2023/11/22 07:55:13;;;;;;;52.90;27.90;;;;;;;5.37;84.94;101278.10;107392;1254;110160;-62
2023/11/22 07:57:43;;;;;;;64.40;29.50;;;;;;;5.37;85.10;101280.45;107467;1254;107231;-61
2023/11/22 08:00:12;;;;;;;64.40;27.90;;;;;;;5.33;85.42;101284.02;107470;1253;98471;-61
2023/11/22 08:02:42;;;;;;;60.90;30.50;;;;;;;5.29;85.93;101287.13;107593;1251;97867;-62
2023/11/22 08:05:15;;;;;;;73.50;31.10;;;;;;;5.25;86.55;101289.14;107517;1251;112025;-62
2023/11/22 08:07:45;;;;;;;64.40;30.30;;;;;;;5.22;86.47;101289.80;107561;1251;109856;-61
2023/11/22 08:10:18;;;;;;;66.80;29.10;;;;;;;5.26;86.42;101292.80;107458;1255;108022;-61
2023/11/22 08:12:49;;;;;;;66.90;32.00;;;;;;;5.35;86.48;101294.77;107633;1251;97923;-62
2023/11/22 08:15:19;;;;;;;54.60;28.40;;;;;;;5.40;86.22;101294.29;107616;1253;97726;-62
2023/11/22 08:17:48;;;;;;;47.30;26.30;;;;;;;5.39;86.51;101295.63;107637;1256;111321;-62
2023/11/22 08:20:19;;;;;;;44.90;22.70;;;;;;;5.38;86.17;101296.00;107463;1253;110655;-62
2023/11/22 08:22:51;;;;;;;48.40;23.80;;;;;;;5.40;86.16;101302.31;107614;1251;106624;-62
2023/11/22 08:25:19;;;;;;;37.80;21.10;;;;;;;5.43;86.67;101303.37;107541;1251;97933;-61
2023/11/22 08:27:47;;;;;;;36.90;20.20;;;;;;;5.36;86.77;101298.42;107665;1251;97714;-61
2023/11/22 08:30:17;;;;;;;30.30;17.70;;;;;;;5.30;87.02;101301.98;107553;1251;111288;-60
2023/11/22 08:32:53;;;;;;;35.00;15.80;;;;;;;5.26;86.91;101304.85;107561;1255;108541;-61
2023/11/22 08:35:23;;;;;;;22.30;13.80;;;;;;;5.20;86.62;101311.81;107533;1254;108700;-60
2023/11/22 08:37:52;;;;;;;21.30;10.80;;;;;;;5.19;86.50;101314.52;107555;1250;97819;-60
2023/11/22 08:40:21;;;;;;;19.10;11.30;;;;;;;5.10;86.02;101312.73;107496;1251;97712;-61
2023/11/22 08:42:50;;;;;;;15.80;10.20;;;;;;;5.01;86.16;101318.70;107520;1251;112122;-61
2023/11/22 08:45:18;;;;;;;23.30;10.20;;;;;;;5.00;86.01;101320.04;107561;1254;109103;-63
2023/11/22 08:47:47;;;;;;;17.70;9.80;;;;;;;5.02;85.95;101323.14;107555;1251;108342;-63
2023/11/22 08:50:17;;;;;;;19.90;10.60;;;;;;;5.03;85.59;101323.10;107582;1253;97828;-61
2023/11/22 08:52:46;;;;;;;17.30;9.90;;;;;;;5.09;85.93;101321.33;107596;1252;98376;-62
2023/11/22 08:55:15;;;;;;;18.80;9.90;;;;;;;5.11;85.66;101320.30;107568;1254;111858;-61
2023/11/22 08:57:44;;;;;;;16.80;9.10;;;;;;;5.07;85.37;101319.65;107560;1251;111059;-62
2023/11/22 09:00:14;;;;;;;18.20;9.40;;;;;;;5.07;84.98;101315.71;107532;1253;107550;-62
2023/11/22 09:02:42;;;;;;;13.50;8.80;;;;;;;5.11;84.91;101323.17;107592;1253;97830;-61
2023/11/22 09:05:12;;;;;;;14.60;9.10;;;;;;;5.05;84.56;101327.77;107620;1254;97947;-61
2023/11/22 09:07:41;;;;;;;15.00;9.50;;;;;;;4.97;84.44;101326.77;107616;1254;111773;-61
2023/11/22 09:10:12;;;;;;;14.80;9.20;;;;;;;4.91;84.29;101329.80;107536;1251;109443;-61
2023/11/22 09:12:43;;;;;;;13.60;8.90;;;;;;;4.81;84.16;101329.10;107594;1251;107400;-60
2023/11/22 09:15:23;;;;;;;19.40;8.30;;;;;;;4.72;84.24;101328.68;107554;1251;97871;-63
2023/11/22 09:17:53;;;;;;;16.40;8.60;;;;;;;4.72;84.32;101337.21;107577;1253;97857;-61
2023/11/22 09:20:23;;;;;;;15.20;8.70;;;;;;;4.72;84.35;101338.67;107603;1253;111597;-61
2023/11/22 09:22:54;;;;;;;14.50;8.90;;;;;;;4.70;84.20;101342.14;107556;1251;108963;-62
2023/11/22 09:25:24;;;;;;;14.70;9.10;;;;;;;4.67;84.16;101349.55;107590;1251;107213;-61
2023/11/22 09:27:58;;;;;;;16.40;9.00;;;;;;;4.67;84.13;101354.76;107560;1251;97826;-61
2023/11/22 09:30:32;;;;;;;21.50;9.20;;;;;;;4.68;84.18;101358.21;107564;1251;97856;-61
2023/11/22 09:33:04;;;;;;;14.90;9.70;;;;;;;4.64;83.73;101361.09;107552;1253;111488;-63
2023/11/22 09:35:33;;;;;;;13.10;7.90;;;;;;;4.60;83.44;101365.03;107603;1253;108869;-61
2023/11/22 09:38:09;;;;;;;17.20;8.50;;;;;;;4.52;83.41;101368.50;107636;1255;106673;-62
2023/11/22 09:40:45;;;;;;;13.90;8.60;;;;;;;4.40;83.08;101372.30;107493;1253;97877;-61
2023/11/22 09:43:20;;;;;;;16.00;8.20;;;;;;;4.32;83.47;101372.75;107617;1254;97833;-60
2023/11/22 09:45:49;;;;;;;12.90;7.60;;;;;;;4.25;83.36;101375.80;107624;1251;110651;-61
2023/11/22 09:48:27;;;;;;;22.00;10.10;;;;;;;4.21;83.17;101371.17;107585;1255;110397;-61
2023/11/22 09:51:23;;;;;;;11.40;8.20;;;;;;;4.23;83.41;101378.71;107377;1253;108539;-61
2023/11/22 09:54:04;;;;;;;12.00;8.20;;;;;;;4.20;83.32;101381.73;107433;1253;97942;-61
2023/11/22 09:56:33;;;;;;;20.20;8.60;;;;;;;4.18;83.39;101386.41;107576;1251;97848;-62
2023/11/22 09:59:03;;;;;;;19.00;8.20;;;;;;;4.19;83.41;101388.67;107518;1254;110918;-62
2023/11/22 10:01:36;;;;;;;14.40;8.00;;;;;;;4.20;83.61;101391.82;107645;1253;109288;-61
2023/11/22 10:04:05;;;;;;;15.50;9.00;;;;;;;4.19;83.40;101398.30;107615;1251;107883;-61
2023/11/22 10:06:35;;;;;;;15.70;8.40;;;;;;;4.17;83.44;101400.71;107583;1254;97897;-61
2023/11/22 10:09:08;;;;;;;12.50;8.20;;;;;;;4.15;83.47;101401.17;107624;1253;98377;-61
2023/11/22 10:11:38;;;;;;;19.10;8.20;;;;;;;4.16;83.32;101398.09;107593;1253;111126;-61
2023/11/22 10:14:08;;;;;;;14.80;8.40;;;;;;;4.20;83.64;101405.52;107184;1251;567761;-60
2023/11/22 10:16:37;;;;;;;13.40;8.30;;;;;;;4.22;83.53;101410.38;107549;1253;108061;-60
2023/11/22 10:19:06;;;;;;;14.60;8.00;;;;;;;4.22;83.32;101410.20;107595;1251;97831;-61
2023/11/22 10:21:35;;;;;;;14.30;8.60;;;;;;;4.28;83.42;101408.66;107574;1251;98473;-61
2023/11/22 10:24:04;;;;;;;17.40;8.90;;;;;;;4.31;83.13;101419.52;107529;1251;112005;-61
2023/11/22 10:26:33;;;;;;;15.20;9.10;;;;;;;4.30;83.21;101420.61;107690;1253;108096;-60
2023/11/22 10:29:02;;;;;;;16.50;8.80;;;;;;;4.31;83.05;101423.42;107578;1251;107989;-61
2023/11/22 10:31:30;;;;;;;15.20;9.60;;;;;;;4.34;82.98;101433.75;107604;1252;97941;-61
2023/11/22 10:33:59;;;;;;;21.00;9.90;;;;;;;4.37;83.28;101437.48;107542;1251;98534;-61
2023/11/22 10:36:29;;;;;;;12.90;8.70;;;;;;;4.45;83.14;101445.60;107575;1253;112182;-61
2023/11/22 10:38:57;;;;;;;15.80;9.20;;;;;;;4.47;82.80;101446.73;107445;1253;110011;-62
2023/11/22 10:41:27;;;;;;;14.50;9.10;;;;;;;4.48;82.86;101447.40;107614;1255;108569;-60
2023/11/22 10:43:57;;;;;;;13.40;8.50;;;;;;;4.45;82.70;101448.45;107490;1252;97933;-61
2023/11/22 10:46:29;;;;;;;19.30;8.70;;;;;;;4.46;82.65;101448.55;107677;1250;97836;-60
2023/11/22 10:48:59;;;;;;;13.50;8.90;;;;;;;4.48;82.84;101453.09;107474;1254;111378;-61
2023/11/22 10:51:32;;;;;;;12.60;9.60;;;;;;;4.52;82.56;101451.98;107350;1251;110360;-60
2023/11/22 10:54:05;;;;;;;12.70;8.50;;;;;;;4.55;82.28;101453.59;107575;1253;107654;-61
2023/11/22 10:56:41;;;;;;;13.50;7.90;;;;;;;4.62;82.65;101458.24;107391;1251;97906;-61
2023/11/22 10:59:22;;;;;;;13.90;8.80;;;;;;;4.62;81.84;101464.44;107527;1253;99035;-61
2023/11/22 11:01:54;;;;;;;15.60;8.60;;;;;;;4.63;82.01;101463.13;107586;1253;112241;-62
2023/11/22 11:04:35;;;;;;;14.70;9.20;;;;;;;4.71;81.92;101467.53;107600;1251;109725;-61
2023/11/22 11:07:08;;;;;;;17.90;8.60;;;;;;;4.70;81.71;101473.59;107519;1253;107810;-61
2023/11/22 11:09:37;;;;;;;13.20;8.70;;;;;;;4.73;81.68;101470.65;107566;1255;97942;-60
2023/11/22 11:12:07;;;;;;;12.40;7.90;;;;;;;4.80;81.66;101468.15;107596;1252;97852;-60
2023/11/22 11:14:37;;;;;;;17.70;8.70;;;;;;;4.85;81.00;101459.84;107577;1251;110263;-62
2023/11/22 11:17:07;;;;;;;14.70;8.40;;;;;;;4.89;81.03;101456.44;107505;1253;107954;-60